Time;durP1;ratioP1;P1;durP2;ratioP2;P2;SDS_P1;SDS_P2;PMS_P1;PMS_P2;Temp;Humidity;BMP_temperature;BMP_pressure;BME280_temperature;BME280_humidity;BME280_pressure;Samples;Min_cycle;Max_cycle;Signal;HPM_P1;HPM_P2
2023/10/09 00:02:29;;;;;;;16.03;7.40;;;1.20;99.90;;;;;;4406164;28;656817;-69
2023/10/09 00:05:23;;;;;;;16.70;8.00;;;1.10;99.90;;;;;;4452352;28;656998;-67
2023/10/09 00:08:16;;;;;;;22.97;7.43;;;1.10;99.90;;;;;;4432107;28;656880;-67
2023/10/09 00:11:16;;;;;;;15.73;7.03;;;1.10;99.90;;;;;;4434267;28;656798;-67
2023/10/09 00:14:05;;;;;;;15.73;7.07;;;1.10;99.90;;;;;;4401700;28;656669;-67
2023/10/09 00:17:05;;;;;;;16.40;7.53;;;1.10;99.90;;;;;;4432134;28;656293;-67
2023/10/09 00:19:59;;;;;;;21.80;7.20;;;1.10;99.90;;;;;;4429236;28;656289;-67
2023/10/09 00:22:46;;;;;;;15.03;7.30;;;1.00;99.90;;;;;;4432305;28;656534;-67
2023/10/09 00:25:36;;;;;;;15.27;6.77;;;0.90;99.90;;;;;;4434412;28;656613;-67
2023/10/09 00:28:23;;;;;;;20.20;7.67;;;0.90;99.90;;;;;;4432767;28;657004;-67
2023/10/09 00:31:14;;;;;;;22.93;8.53;;;1.00;99.90;;;;;;4451906;27;659257;-67
2023/10/09 00:34:05;;;;;;;17.70;8.10;;;1.00;99.90;;;;;;4428086;28;656086;-67
2023/10/09 00:36:52;;;;;;;18.23;7.70;;;1.00;99.90;;;;;;4423673;28;657154;-67
2023/10/09 00:39:43;;;;;;;16.57;7.47;;;1.00;99.90;;;;;;4432523;28;657176;-67
2023/10/09 00:42:34;;;;;;;17.27;7.80;;;1.00;99.90;;;;;;4433345;28;656956;-67
2023/10/09 00:45:28;;;;;;;23.60;9.73;;;1.00;99.90;;;;;;4423752;28;656607;-67
2023/10/09 00:48:23;;;;;;;20.73;9.60;;;1.00;99.90;;;;;;4430283;28;657207;-67
2023/10/09 00:51:18;;;;;;;26.83;10.43;;;1.00;99.90;;;;;;4427763;28;658282;-67
2023/10/09 00:54:13;;;;;;;27.77;11.77;;;1.00;99.90;;;;;;4365337;28;657575;-67
2023/10/09 00:57:07;;;;;;;29.50;11.27;;;1.00;99.90;;;;;;4397569;28;657875;-67
2023/10/09 00:59:59;;;;;;;29.47;10.73;;;1.00;99.90;;;;;;4427644;27;658490;-67
2023/10/09 01:03:10;;;;;;;22.97;8.23;;;0.90;99.90;;;;;;4421521;28;657847;-67
2023/10/09 01:05:58;;;;;;;23.67;8.87;;;0.70;99.90;;;;;;4410252;28;657567;-67
2023/10/09 01:08:48;;;;;;;16.63;8.40;;;0.60;99.90;;;;;;4430082;27;657383;-67
2023/10/09 01:11:47;;;;;;;21.53;8.77;;;0.60;99.90;;;;;;4432617;27;658285;-67
2023/10/09 01:14:36;;;;;;;24.37;10.77;;;0.70;99.90;;;;;;4429372;27;656238;-67
2023/10/09 01:17:35;;;;;;;25.80;10.67;;;0.80;99.90;;;;;;4431655;28;657879;-67
2023/10/09 01:20:30;;;;;;;21.80;9.80;;;0.70;99.90;;;;;;4415430;28;657771;-67
2023/10/09 01:23:19;;;;;;;21.73;9.50;;;0.60;99.90;;;;;;4419446;28;656831;-67
2023/10/09 01:26:07;;;;;;;23.53;10.27;;;0.70;99.90;;;;;;4427200;28;657066;-67
2023/10/09 01:28:57;;;;;;;24.70;10.67;;;0.70;99.90;;;;;;4428285;27;657832;-67
2023/10/09 01:31:51;;;;;;;25.93;10.87;;;0.70;99.90;;;;;;4429066;28;658110;-67
2023/10/09 01:34:42;;;;;;;27.20;11.50;;;0.70;99.90;;;;;;4406602;28;657281;-67
2023/10/09 01:37:30;;;;;;;23.93;11.10;;;0.70;99.90;;;;;;4433980;27;657785;-67
2023/10/09 01:40:25;;;;;;;26.07;10.83;;;0.80;99.90;;;;;;4429010;28;658075;-68
2023/10/09 01:43:13;;;;;;;28.37;11.63;;;0.80;99.90;;;;;;4447371;28;657800;-67
2023/10/09 01:46:01;;;;;;;30.83;12.57;;;0.80;99.90;;;;;;4457013;28;656847;-67
2023/10/09 01:48:48;;;;;;;24.57;11.37;;;0.80;99.90;;;;;;4428279;28;657340;-67
2023/10/09 01:51:36;;;;;;;24.77;11.00;;;0.80;99.90;;;;;;4445972;28;658033;-67
2023/10/09 01:54:36;;;;;;;28.83;11.67;;;1.00;99.90;;;;;;4428256;28;657877;-67
2023/10/09 01:57:25;;;;;;;27.70;12.40;;;1.10;99.90;;;;;;4426091;28;658246;-67
2023/10/09 02:00:22;;;;;;;33.17;14.25;;;1.20;99.90;;;;;;4434093;28;657591;-68
2023/10/09 02:03:12;;;;;;;31.45;14.60;;;1.40;99.90;;;;;;4427398;28;657902;-67
2023/10/09 02:06:00;;;;;;;28.65;14.48;;;1.40;99.90;;;;;;4430740;28;657015;-67
2023/10/09 02:08:49;;;;;;;32.53;15.57;;;1.50;99.90;;;;;;4444048;28;660208;-67
2023/10/09 02:11:39;;;;;;;31.70;15.03;;;1.60;99.90;;;;;;4455728;28;657543;-67
2023/10/09 02:14:27;;;;;;;33.93;16.67;;;1.60;99.90;;;;;;4422244;28;657472;-67
2023/10/09 02:17:19;;;;;;;36.17;16.67;;;1.60;99.90;;;;;;4428157;28;658721;-68
2023/10/09 02:20:17;;;;;;;32.17;15.80;;;1.70;99.90;;;;;;4431032;28;657701;-67
2023/10/09 02:23:12;;;;;;;33.00;14.83;;;1.70;99.90;;;;;;4393906;28;658315;-67
2023/10/09 02:26:04;;;;;;;37.57;15.37;;;1.70;99.90;;;;;;4431610;28;658033;-67
2023/10/09 02:28:58;;;;;;;32.80;14.37;;;1.70;99.90;;;;;;4429531;28;658471;-67
2023/10/09 02:31:51;;;;;;;32.00;14.13;;;1.70;99.90;;;;;;4428615;28;658133;-67
2023/10/09 02:34:38;;;;;;;28.40;13.90;;;1.80;99.90;;;;;;4424866;28;657840;-67
2023/10/09 02:37:26;;;;;;;30.33;13.83;;;1.90;99.90;;;;;;4448533;28;658461;-67
2023/10/09 02:40:22;;;;;;;28.87;13.40;;;1.90;99.90;;;;;;4423974;28;657540;-67
2023/10/09 02:43:17;;;;;;;29.90;13.27;;;1.90;99.90;;;;;;4399829;28;658389;-67
2023/10/09 02:46:14;;;;;;;30.80;13.95;;;1.90;99.90;;;;;;4366944;28;659147;-67
2023/10/09 02:49:09;;;;;;;29.57;14.07;;;2.00;99.90;;;;;;4363786;28;658149;-67
2023/10/09 02:51:56;;;;;;;27.37;13.77;;;2.00;99.90;;;;;;4321365;28;658107;-67
2023/10/09 02:54:46;;;;;;;31.17;14.70;;;2.20;99.90;;;;;;4319185;28;657169;-68
2023/10/09 02:57:36;;;;;;;32.40;16.67;;;2.20;99.90;;;;;;4430567;28;657695;-67
2023/10/09 03:00:29;;;;;;;32.50;16.67;;;2.20;99.90;;;;;;4430102;28;657533;-67
2023/10/09 03:03:18;;;;;;;34.27;16.47;;;2.30;99.90;;;;;;4424976;28;657328;-67
2023/10/09 03:06:11;;;;;;;25.57;14.50;;;2.40;99.90;;;;;;4422574;28;658759;-67
2023/10/09 03:08:58;;;;;;;29.53;14.63;;;2.40;99.90;;;;;;4401466;28;659427;-67
2023/10/09 03:11:47;;;;;;;28.90;15.07;;;2.50;99.90;;;;;;4452634;28;658315;-67
2023/10/09 03:14:38;;;;;;;27.63;14.07;;;2.60;99.90;;;;;;4429068;28;658989;-67
2023/10/09 03:17:25;;;;;;;30.50;14.20;;;2.70;99.90;;;;;;4425798;28;658120;-67
2023/10/09 03:20:13;;;;;;;25.60;14.17;;;2.60;99.90;;;;;;4442818;28;657764;-68
2023/10/09 03:23:02;;;;;;;27.30;14.60;;;2.70;99.90;;;;;;4448182;28;659507;-67
2023/10/09 03:25:49;;;;;;;27.57;13.37;;;2.80;99.90;;;;;;4426564;28;658306;-68
2023/10/09 03:28:37;;;;;;;26.77;13.57;;;2.80;99.90;;;;;;4450179;28;658016;-67
2023/10/09 03:31:24;;;;;;;25.47;13.47;;;2.90;99.90;;;;;;4433469;28;657658;-67
2023/10/09 03:34:11;;;;;;;26.70;12.43;;;3.00;99.90;;;;;;4454273;28;657259;-67
2023/10/09 03:37:04;;;;;;;23.40;12.87;;;3.00;99.90;;;;;;4427632;28;657658;-67
2023/10/09 03:39:54;;;;;;;32.27;15.23;;;3.00;99.90;;;;;;4429581;28;657823;-67
2023/10/09 03:42:42;;;;;;;29.13;14.93;;;3.10;99.90;;;;;;4423754;28;658215;-67
2023/10/09 03:45:31;;;;;;;26.43;13.03;;;3.20;99.90;;;;;;4422417;28;658852;-67
2023/10/09 03:48:25;;;;;;;26.50;13.23;;;3.20;99.90;;;;;;4428998;28;657791;-67
2023/10/09 03:51:15;;;;;;;27.23;13.77;;;3.20;99.90;;;;;;4407671;28;657709;-67
2023/10/09 03:54:06;;;;;;;24.23;12.10;;;3.30;99.90;;;;;;4448441;28;660257;-67
2023/10/09 03:56:58;;;;;;;27.77;14.27;;;3.40;99.90;;;;;;4427709;27;658769;-67
2023/10/09 03:59:46;;;;;;;25.37;12.77;;;3.50;99.90;;;;;;4427147;28;659164;-67
2023/10/09 04:02:34;;;;;;;26.27;12.17;;;3.40;99.90;;;;;;4429494;28;657616;-67
2023/10/09 04:05:21;;;;;;;26.07;13.77;;;3.30;99.90;;;;;;4447054;28;657868;-67
2023/10/09 04:08:12;;;;;;;21.55;11.80;;;3.40;99.90;;;;;;4431944;28;657052;-67
2023/10/09 04:11:03;;;;;;;25.97;12.73;;;3.40;99.90;;;;;;4430810;27;658947;-67
2023/10/09 04:13:53;;;;;;;22.63;12.23;;;3.50;99.90;;;;;;4428129;28;659758;-68
2023/10/09 04:16:51;;;;;;;25.23;12.43;;;3.50;99.90;;;;;;4424264;28;658960;-67
2023/10/09 04:19:47;;;;;;;25.00;12.00;;;3.60;99.90;;;;;;4433559;28;657928;-67
2023/10/09 04:22:39;;;;;;;26.77;13.33;;;3.70;99.90;;;;;;4402633;28;657802;-67
2023/10/09 04:25:27;;;;;;;23.23;10.43;;;3.70;99.90;;;;;;4423799;28;657365;-67
2023/10/09 04:28:19;;;;;;;21.30;11.33;;;3.60;99.90;;;;;;4426255;28;658722;-67
2023/10/09 04:31:08;;;;;;;26.37;12.10;;;3.70;99.90;;;;;;4426297;28;658099;-67
2023/10/09 04:34:21;;;;;;;20.17;10.00;;;3.80;99.90;;;;;;4424503;27;658153;-67
2023/10/09 04:37:19;;;;;;;24.67;12.03;;;3.80;99.90;;;;;;4406765;28;658113;-67
2023/10/09 04:40:13;;;;;;;24.17;11.73;;;3.80;99.90;;;;;;4427150;28;658068;-67
2023/10/09 04:42:59;;;;;;;21.40;10.47;;;3.70;99.90;;;;;;4425550;27;657335;-67
2023/10/09 04:46:07;;;;;;;24.23;10.30;;;3.70;99.90;;;;;;4448554;27;657933;-67
2023/10/09 04:48:55;;;;;;;22.47;11.10;;;3.70;99.90;;;;;;4433257;28;657586;-67
2023/10/09 04:51:58;;;;;;;27.87;11.60;;;3.70;99.90;;;;;;4450836;28;658604;-67
2023/10/09 04:55:04;;;;;;;22.10;10.07;;;3.70;99.90;;;;;;4422256;27;658166;-67
2023/10/09 04:58:13;;;;;;;17.27;8.30;;;3.80;99.90;;;;;;4427280;27;657498;-67
2023/10/09 05:01:12;;;;;;;18.73;9.03;;;3.90;99.90;;;;;;4429401;28;656218;-67
2023/10/09 05:04:04;;;;;;;15.50;8.43;;;3.90;99.90;;;;;;4408709;28;657705;-67
2023/10/09 05:06:55;;;;;;;19.17;9.60;;;4.00;99.90;;;;;;4432333;28;657083;-67
2023/10/09 05:09:55;;;;;;;18.93;8.40;;;3.90;99.90;;;;;;4411119;28;656628;-67
2023/10/09 05:12:47;;;;;;;15.17;8.43;;;3.90;99.90;;;;;;4433177;27;656408;-67
2023/10/09 05:15:34;;;;;;;17.17;8.77;;;4.00;99.90;;;;;;4426484;28;658367;-67
2023/10/09 05:18:27;;;;;;;17.97;8.00;;;4.00;99.90;;;;;;4452165;28;656537;-67
2023/10/09 05:21:35;;;;;;;14.23;7.60;;;4.00;99.90;;;;;;4426305;28;657322;-67
2023/10/09 05:24:23;;;;;;;14.60;7.97;;;4.10;99.90;;;;;;4406663;28;656733;-67
2023/10/09 05:27:24;;;;;;;12.83;6.87;;;4.10;99.90;;;;;;4450459;28;657273;-67
2023/10/09 05:30:24;;;;;;;13.43;6.17;;;4.20;99.90;;;;;;4428146;28;657266;-67
2023/10/09 05:33:33;;;;;;;12.27;6.07;;;4.20;99.90;;;;;;4426888;28;657757;-67
2023/10/09 05:36:35;;;;;;;12.63;6.80;;;4.20;99.90;;;;;;4427411;28;657088;-67
2023/10/09 05:39:40;;;;;;;19.07;7.70;;;4.30;99.90;;;;;;4449364;28;656766;-67
2023/10/09 05:42:29;;;;;;;15.60;7.40;;;4.40;99.90;;;;;;4410673;28;656573;-67
2023/10/09 05:51:43;;;;;;;13.17;7.00;;;4.40;99.90;;;;;;4433009;28;656878;-67
2023/10/09 06:03:53;;;;;;;9.77;4.37;;;4.60;99.90;;;;;;4423110;28;656763;-67
2023/10/09 06:06:45;;;;;;;6.20;3.53;;;4.60;99.90;;;;;;4423319;28;656145;-66
2023/10/09 06:16:09;;;;;;;12.90;5.67;;;4.90;99.90;;;;;;4456785;27;650147;-68
2023/10/09 06:19:07;;;;;;;11.87;6.20;;;4.90;99.90;;;;;;4457394;27;650867;-68
2023/10/09 06:25:08;;;;;;;11.98;6.10;;;5.00;99.90;;;;;;4466264;27;651787;-68
2023/10/09 06:28:02;;;;;;;13.33;6.13;;;4.90;99.90;;;;;;4457933;27;650288;-68
2023/10/09 06:30:49;;;;;;;12.67;5.10;;;4.80;99.90;;;;;;4453740;27;651507;-68
2023/10/09 06:33:58;;;;;;;12.00;5.53;;;5.00;99.90;;;;;;4482188;27;651039;-68
2023/10/09 06:36:52;;;;;;;11.87;5.43;;;5.00;99.90;;;;;;4435590;27;652165;-68
2023/10/09 06:40:10;;;;;;;9.40;5.27;;;5.10;99.90;;;;;;4463572;27;653551;-68
2023/10/09 06:43:07;;;;;;;9.63;4.80;;;5.20;99.90;;;;;;4445159;27;651036;-68
2023/10/09 06:45:57;;;;;;;12.07;5.67;;;5.30;99.90;;;;;;4458021;27;651514;-68
2023/10/09 06:48:55;;;;;;;10.53;4.83;;;5.40;99.90;;;;;;4417340;27;652403;-68
2023/10/09 06:51:42;;;;;;;11.30;4.67;;;5.30;99.90;;;;;;4305478;27;652747;-68
2023/10/09 06:54:37;;;;;;;7.97;4.13;;;5.30;99.90;;;;;;4308564;28;652773;-69
2023/10/09 07:03:36;;;;;;;9.73;4.60;;;5.40;99.90;;;;;;4402291;28;652023;-68
2023/10/09 07:06:48;;;;;;;11.93;5.23;;;5.50;99.90;;;;;;4435807;28;651400;-68
2023/10/09 07:09:42;;;;;;;11.80;6.30;;;5.60;99.90;;;;;;4434239;28;652317;-68
2023/10/09 07:12:32;;;;;;;11.80;5.80;;;5.50;99.90;;;;;;4425150;28;652945;-68
2023/10/09 07:18:40;;;;;;;9.63;4.72;;;5.60;99.90;;;;;;4400511;28;652978;-68
2023/10/09 07:21:28;;;;;;;10.13;4.73;;;5.50;99.90;;;;;;4405410;28;652212;-68
2023/10/09 07:24:17;;;;;;;9.27;4.83;;;5.50;99.90;;;;;;4436941;28;652686;-68
2023/10/09 07:27:08;;;;;;;7.53;3.27;;;5.60;99.90;;;;;;4419604;28;652169;-68
2023/10/09 07:29:56;;;;;;;8.47;3.70;;;5.50;99.90;;;;;;4412477;28;651988;-68
2023/10/09 07:32:47;;;;;;;7.23;3.93;;;5.40;99.90;;;;;;4418798;28;651284;-68
2023/10/09 07:35:47;;;;;;;2.53;1.20;;;5.40;99.90;;;;;;4420857;28;652658;-67
2023/10/09 07:38:36;;;;;;;6.50;2.20;;;5.50;99.90;;;;;;4414654;28;651416;-68
2023/10/09 07:41:39;;;;;;;4.90;2.80;;;5.50;99.90;;;;;;4420417;28;651392;-68
2023/10/09 07:44:36;;;;;;;6.23;3.00;;;5.50;99.90;;;;;;4414955;28;651408;-68
2023/10/09 07:47:33;;;;;;;4.73;1.40;;;5.20;99.90;;;;;;4422679;28;651502;-68
2023/10/09 07:50:21;;;;;;;4.40;2.20;;;5.20;99.90;;;;;;4389222;28;652887;-68
2023/10/09 07:53:17;;;;;;;9.50;2.30;;;5.30;99.90;;;;;;4414430;28;651533;-68
2023/10/09 07:56:07;;;;;;;4.63;1.57;;;5.30;99.90;;;;;;4413938;28;652649;-68
2023/10/09 07:59:00;;;;;;;3.50;1.63;;;5.40;99.90;;;;;;4413698;28;652517;-68
2023/10/09 08:01:53;;;;;;;3.17;1.50;;;5.40;99.90;;;;;;4410982;28;651901;-68
2023/10/09 08:04:48;;;;;;;3.60;1.50;;;5.40;99.90;;;;;;4419763;28;652158;-68
2023/10/09 08:07:35;;;;;;;1.80;0.93;;;5.40;99.90;;;;;;4397294;28;652282;-68
2023/10/09 08:16:41;;;;;;;3.53;1.90;;;5.40;99.90;;;;;;4419454;28;652148;-68
2023/10/09 08:19:32;;;;;;;4.83;2.20;;;5.40;99.90;;;;;;4400322;28;651680;-68
2023/10/09 08:25:27;;;;;;;6.87;2.53;;;5.50;99.90;;;;;;4413351;28;652636;-68
2023/10/09 08:31:34;;;;;;;3.40;1.90;;;5.60;99.90;;;;;;4394690;28;652347;-68
2023/10/09 08:34:26;;;;;;;4.33;1.83;;;5.60;99.90;;;;;;4428682;28;651825;-68
2023/10/09 08:37:13;;;;;;;6.37;1.93;;;5.60;99.90;;;;;;4399997;28;652055;-68
2023/10/09 08:40:07;;;;;;;3.93;1.83;;;5.40;99.90;;;;;;4445167;28;652149;-68
2023/10/09 08:42:55;;;;;;;4.53;2.07;;;5.70;99.90;;;;;;4422222;28;651806;-68
2023/10/09 08:45:46;;;;;;;4.57;1.80;;;6.00;99.90;;;;;;4421591;28;651748;-68
2023/10/09 08:48:33;;;;;;;4.50;2.13;;;6.10;99.90;;;;;;4422648;28;651666;-68
2023/10/09 08:51:21;;;;;;;4.83;1.93;;;6.30;99.90;;;;;;4440040;28;651334;-68
2023/10/09 08:54:11;;;;;;;4.37;2.10;;;6.70;99.90;;;;;;4422776;28;652186;-68
2023/10/09 08:56:58;;;;;;;3.40;1.57;;;6.90;99.90;;;;;;4428744;28;651641;-68
2023/10/09 08:59:47;;;;;;;5.83;2.60;;;6.80;99.90;;;;;;4443208;28;652678;-68
2023/10/09 09:02:36;;;;;;;4.37;1.97;;;6.60;99.90;;;;;;4416897;28;653251;-68
2023/10/09 09:05:28;;;;;;;4.03;2.10;;;6.70;99.90;;;;;;4421854;28;652873;-68
2023/10/09 09:08:25;;;;;;;4.77;2.10;;;6.90;99.90;;;;;;4416091;28;653000;-68
2023/10/09 09:11:14;;;;;;;4.73;2.10;;;7.00;99.90;;;;;;4417190;28;652951;-68
2023/10/09 09:14:04;;;;;;;4.33;1.60;;;7.10;99.90;;;;;;4436825;28;653476;-68
2023/10/09 09:16:53;;;;;;;3.47;1.53;;;7.30;99.90;;;;;;4413503;28;652556;-68
2023/10/09 09:19:42;;;;;;;3.37;1.70;;;7.30;99.90;;;;;;4410428;28;653672;-68
2023/10/09 09:22:29;;;;;;;4.07;1.77;;;7.30;99.90;;;;;;4419228;28;653978;-68
2023/10/09 09:25:17;;;;;;;4.27;1.60;;;7.40;99.90;;;;;;4443115;28;652697;-68
2023/10/09 09:28:09;;;;;;;2.57;1.30;;;7.30;99.90;;;;;;4424077;28;652674;-68
2023/10/09 09:31:02;;;;;;;2.00;1.30;;;7.20;99.90;;;;;;4410540;28;652763;-68
2023/10/09 09:34:01;;;;;;;2.83;1.23;;;7.20;99.90;;;;;;4396315;28;653400;-68
2023/10/09 09:36:55;;;;;;;3.33;1.20;;;7.20;99.90;;;;;;4414262;28;652974;-68
2023/10/09 09:39:43;;;;;;;4.17;1.10;;;7.20;99.90;;;;;;4400560;28;652009;-68
2023/10/09 09:42:32;;;;;;;4.20;1.20;;;7.30;99.90;;;;;;4439564;28;653418;-68
2023/10/09 09:45:23;;;;;;;4.27;1.53;;;7.30;99.90;;;;;;4411007;28;653301;-68
2023/10/09 09:48:15;;;;;;;2.17;1.30;;;7.20;99.90;;;;;;4417362;28;653206;-68
2023/10/09 09:51:06;;;;;;;2.93;1.13;;;7.30;99.90;;;;;;4409272;28;652538;-68
2023/10/09 09:53:53;;;;;;;1.70;0.93;;;7.20;99.90;;;;;;4412570;28;652354;-68
2023/10/09 09:56:41;;;;;;;2.30;1.20;;;7.20;99.90;;;;;;4431349;28;653129;-68
2023/10/09 09:59:28;;;;;;;2.43;1.30;;;7.20;99.90;;;;;;4411651;28;652523;-68
2023/10/09 10:02:20;;;;;;;3.60;1.40;;;7.20;99.90;;;;;;4437696;28;653307;-68
2023/10/09 10:05:11;;;;;;;4.07;1.73;;;7.20;99.90;;;;;;4398480;28;653562;-68
2023/10/09 10:08:00;;;;;;;2.60;1.20;;;7.20;99.90;;;;;;4416008;28;653985;-68
2023/10/09 10:10:52;;;;;;;1.80;1.10;;;7.30;99.90;;;;;;4417400;28;653400;-68
2023/10/09 10:13:58;;;;;;;2.47;1.00;;;7.30;99.90;;;;;;4418244;28;653196;-68
2023/10/09 10:17:01;;;;;;;2.17;1.20;;;7.20;99.90;;;;;;4413897;28;653120;-68
2023/10/09 10:23:20;;;;;;;2.93;1.50;;;7.10;99.90;;;;;;4415813;28;652526;-68
2023/10/09 10:26:25;;;;;;;4.80;1.80;;;7.10;99.90;;;;;;4411585;28;652622;-68
2023/10/09 10:29:26;;;;;;;2.97;1.70;;;7.10;99.90;;;;;;4398136;28;652289;-68
2023/10/09 10:32:18;;;;;;;2.30;1.40;;;7.10;99.90;;;;;;4420126;28;652949;-68
2023/10/09 10:35:10;;;;;;;1.77;1.30;;;7.10;99.90;;;;;;4424898;28;652917;-68
2023/10/09 10:38:11;;;;;;;2.95;1.50;;;7.10;99.90;;;;;;4407185;28;652456;-69
2023/10/09 10:41:12;;;;;;;4.20;1.60;;;7.10;99.90;;;;;;4430407;28;652358;-69
2023/10/09 10:44:00;;;;;;;3.57;1.63;;;6.90;99.90;;;;;;4401009;28;652519;-68
2023/10/09 10:46:51;;;;;;;1.43;1.27;;;7.00;99.90;;;;;;4419330;28;652577;-69
2023/10/09 10:49:40;;;;;;;4.77;1.50;;;6.90;99.90;;;;;;4400550;28;652286;-70
2023/10/09 10:52:41;;;;;;;3.50;1.70;;;7.00;99.90;;;;;;4405240;28;652402;-69
2023/10/09 10:58:47;;;;;;;5.37;1.80;;;7.00;99.90;;;;;;4382289;28;653363;-69
2023/10/09 11:01:50;;;;;;;3.43;1.70;;;7.10;99.90;;;;;;4380813;28;652951;-69
2023/10/09 11:04:41;;;;;;;4.43;1.37;;;7.10;99.90;;;;;;4391265;28;653974;-69
2023/10/09 11:07:29;;;;;;;2.60;1.47;;;7.10;99.90;;;;;;4419873;28;653697;-69
2023/10/09 11:10:27;;;;;;;2.27;1.47;;;7.10;99.90;;;;;;4441790;28;653808;-68
2023/10/09 11:13:35;;;;;;;2.43;1.50;;;7.00;99.90;;;;;;4394747;28;654679;-68
2023/10/09 11:16:41;;;;;;;2.13;1.40;;;7.10;99.90;;;;;;4440622;28;653642;-69
2023/10/09 11:19:32;;;;;;;3.03;1.60;;;6.90;99.90;;;;;;4420729;28;653969;-69
2023/10/09 11:22:29;;;;;;;3.50;1.80;;;6.90;99.90;;;;;;4412837;28;654258;-68
2023/10/09 11:25:18;;;;;;;3.37;1.80;;;6.80;99.90;;;;;;4406541;28;653739;-68
2023/10/09 11:28:27;;;;;;;1.60;1.30;;;6.70;99.90;;;;;;4423290;28;653395;-69
2023/10/09 11:31:15;;;;;;;3.27;1.70;;;6.70;99.90;;;;;;4423708;28;653414;-68
2023/10/09 11:34:06;;;;;;;5.37;2.20;;;6.60;99.90;;;;;;4425261;28;653635;-68
2023/10/09 11:36:55;;;;;;;6.67;2.40;;;6.60;99.90;;;;;;4420488;28;653885;-68
2023/10/09 11:39:51;;;;;;;6.00;2.53;;;6.50;99.90;;;;;;4426382;28;653499;-68
2023/10/09 11:42:38;;;;;;;5.17;2.10;;;6.50;99.90;;;;;;4414432;28;654020;-68
2023/10/09 11:45:28;;;;;;;3.57;1.80;;;6.50;99.90;;;;;;4445579;28;655584;-68
2023/10/09 11:48:21;;;;;;;4.97;2.27;;;6.50;99.90;;;;;;4416862;28;654910;-68
2023/10/09 11:51:19;;;;;;;3.63;2.40;;;6.50;99.90;;;;;;4403471;28;654173;-68
2023/10/09 11:54:08;;;;;;;3.77;2.20;;;6.50;99.90;;;;;;4432395;28;654557;-68
2023/10/09 11:56:55;;;;;;;3.90;1.87;;;6.50;99.90;;;;;;4419889;28;653880;-68
2023/10/09 11:59:43;;;;;;;4.57;2.17;;;6.50;99.90;;;;;;4418481;28;653164;-68
2023/10/09 12:02:31;;;;;;;3.97;2.70;;;6.50;99.90;;;;;;4446145;28;652817;-68
2023/10/09 12:05:18;;;;;;;7.80;4.43;;;6.50;99.90;;;;;;4416400;28;652993;-68
2023/10/09 12:08:08;;;;;;;4.47;3.13;;;6.40;99.90;;;;;;4441760;28;654127;-68
2023/10/09 12:10:56;;;;;;;4.47;2.87;;;6.50;99.90;;;;;;4414971;28;653752;-68
2023/10/09 12:13:43;;;;;;;5.87;2.43;;;6.50;99.90;;;;;;4410906;28;657139;-68
2023/10/09 12:16:32;;;;;;;3.97;2.13;;;6.60;99.90;;;;;;4443733;28;654283;-68
2023/10/09 12:19:21;;;;;;;3.63;2.00;;;6.60;99.90;;;;;;4422064;28;654630;-68
2023/10/09 12:22:10;;;;;;;3.23;1.77;;;6.60;99.90;;;;;;4423980;28;654187;-68
2023/10/09 12:24:59;;;;;;;4.17;1.97;;;6.50;99.90;;;;;;4415870;28;653455;-68
2023/10/09 12:27:47;;;;;;;2.33;1.77;;;6.50;99.90;;;;;;4441160;28;653335;-68
2023/10/09 12:30:39;;;;;;;2.77;1.87;;;6.40;99.90;;;;;;4416326;28;655027;-67
2023/10/09 12:33:27;;;;;;;3.47;2.20;;;6.40;99.90;;;;;;4433515;28;653678;-68
2023/10/09 12:36:19;;;;;;;3.50;2.00;;;6.50;99.90;;;;;;4429450;28;652822;-68
2023/10/09 12:39:06;;;;;;;4.27;2.17;;;6.40;99.90;;;;;;4418452;28;653706;-68
2023/10/09 12:41:58;;;;;;;5.17;2.73;;;6.50;99.90;;;;;;4430118;28;653538;-68
2023/10/09 12:44:45;;;;;;;6.60;3.07;;;6.40;99.90;;;;;;4420593;28;654102;-68
2023/10/09 12:47:32;;;;;;;6.97;3.53;;;6.50;99.90;;;;;;4427780;28;654265;-67
2023/10/09 12:50:27;;;;;;;8.60;5.07;;;6.50;99.90;;;;;;4445373;28;653956;-67
2023/10/09 12:53:17;;;;;;;9.27;5.20;;;6.50;99.90;;;;;;4415006;28;654647;-68
2023/10/09 12:56:05;;;;;;;8.47;5.03;;;6.50;99.90;;;;;;4425003;28;653802;-68
2023/10/09 12:58:55;;;;;;;8.20;4.27;;;6.50;99.90;;;;;;4320781;28;653348;-69
2023/10/09 13:01:45;;;;;;;10.03;5.10;;;6.60;99.90;;;;;;4262687;28;654044;-69
2023/10/09 13:04:34;;;;;;;7.75;4.20;;;6.50;99.90;;;;;;4317089;28;654308;-68
2023/10/09 13:07:22;;;;;;;8.13;5.03;;;6.50;99.90;;;;;;4437477;28;653650;-68
2023/10/09 13:10:12;;;;;;;8.60;4.80;;;6.50;99.90;;;;;;4410967;28;654197;-68
2023/10/09 13:12:59;;;;;;;10.23;5.70;;;6.50;99.90;;;;;;4417308;28;653959;-68
2023/10/09 13:15:48;;;;;;;10.82;6.30;;;6.50;99.90;;;;;;4437529;28;654811;-68
2023/10/09 13:18:37;;;;;;;11.50;6.33;;;6.60;99.90;;;;;;4415451;28;654797;-68
2023/10/09 13:21:26;;;;;;;12.27;6.40;;;6.50;99.90;;;;;;4409383;28;655318;-68
2023/10/09 13:24:15;;;;;;;9.00;5.87;;;6.60;99.90;;;;;;4422922;28;654519;-68
2023/10/09 13:27:04;;;;;;;11.20;5.90;;;6.60;99.90;;;;;;4426660;28;653763;-68
2023/10/09 13:29:52;;;;;;;13.03;6.57;;;6.60;99.90;;;;;;4444505;28;654412;-68
2023/10/09 13:32:40;;;;;;;10.13;6.07;;;6.60;99.90;;;;;;4419292;28;655932;-68
2023/10/09 13:35:37;;;;;;;11.70;6.87;;;6.60;99.90;;;;;;4408644;28;655493;-68
2023/10/09 13:38:24;;;;;;;11.00;5.97;;;6.70;99.90;;;;;;4391657;28;654510;-68
2023/10/09 13:41:17;;;;;;;7.73;5.40;;;6.70;99.90;;;;;;4436874;28;653709;-68
2023/10/09 13:44:05;;;;;;;14.80;8.43;;;6.70;99.90;;;;;;4407608;28;655711;-68
2023/10/09 13:46:53;;;;;;;11.97;6.70;;;6.70;99.90;;;;;;4439799;28;654352;-68
2023/10/09 13:49:44;;;;;;;13.03;6.17;;;6.70;99.90;;;;;;4429778;28;655266;-68
2023/10/09 13:52:32;;;;;;;10.97;5.40;;;6.70;99.90;;;;;;4409637;28;656067;-68
2023/10/09 13:55:19;;;;;;;38.27;13.17;;;6.70;99.90;;;;;;4415240;28;654467;-68
2023/10/09 13:58:06;;;;;;;27.87;11.83;;;6.70;99.90;;;;;;4439260;28;655718;-68
2023/10/09 14:00:58;;;;;;;36.97;17.07;;;6.70;99.90;;;;;;4430313;28;655187;-68
2023/10/09 14:03:49;;;;;;;25.20;11.33;;;6.80;99.90;;;;;;4433640;28;656020;-68
2023/10/09 14:06:44;;;;;;;25.55;12.93;;;6.70;99.90;;;;;;4417229;28;655794;-68
2023/10/09 14:09:32;;;;;;;26.13;13.63;;;6.70;99.90;;;;;;4415784;28;655833;-68
2023/10/09 14:12:21;;;;;;;24.90;12.30;;;6.60;99.90;;;;;;4420334;28;655420;-68
2023/10/09 14:15:11;;;;;;;20.37;10.80;;;6.70;99.90;;;;;;4418086;28;655443;-68
2023/10/09 14:18:02;;;;;;;11.70;6.67;;;6.70;99.90;;;;;;4419132;28;655401;-68
2023/10/09 14:20:49;;;;;;;17.53;8.90;;;6.70;99.90;;;;;;4421118;28;655349;-68
2023/10/09 14:23:38;;;;;;;10.87;7.30;;;6.70;99.90;;;;;;4439084;28;654550;-68
2023/10/09 14:26:26;;;;;;;10.35;6.85;;;6.60;99.90;;;;;;4418007;28;654997;-68
2023/10/09 14:29:16;;;;;;;12.90;6.37;;;6.60;99.90;;;;;;4423284;28;654470;-68
2023/10/09 14:32:05;;;;;;;15.68;8.25;;;6.50;99.90;;;;;;4418668;28;654722;-68
2023/10/09 14:34:54;;;;;;;17.73;8.37;;;6.50;99.90;;;;;;4428814;28;654423;-68
2023/10/09 14:37:41;;;;;;;15.03;9.03;;;6.50;99.90;;;;;;4446676;28;654107;-68
2023/10/09 14:40:31;;;;;;;14.50;8.57;;;6.60;99.90;;;;;;4420816;28;654747;-68
2023/10/09 14:43:27;;;;;;;22.63;10.65;;;6.50;99.90;;;;;;4426462;28;654422;-68
2023/10/09 14:46:15;;;;;;;20.73;10.53;;;6.60;99.90;;;;;;4391379;28;655648;-68
2023/10/09 14:49:02;;;;;;;19.47;10.30;;;6.60;99.90;;;;;;4442191;28;655253;-68
2023/10/09 14:51:50;;;;;;;24.70;13.03;;;6.70;99.90;;;;;;4417549;28;657339;-68
2023/10/09 14:54:38;;;;;;;20.27;12.07;;;6.60;99.90;;;;;;4431005;28;655728;-68
2023/10/09 14:57:27;;;;;;;21.20;11.73;;;6.60;99.90;;;;;;4446651;28;656497;-66
2023/10/09 15:00:15;;;;;;;28.70;14.30;;;6.50;99.90;;;;;;4428711;28;655796;-66
2023/10/09 15:03:04;;;;;;;30.27;16.57;;;6.40;99.90;;;;;;4438647;28;655415;-66
2023/10/09 15:05:51;;;;;;;28.00;16.63;;;6.40;99.90;;;;;;4443603;28;656423;-66
2023/10/09 15:08:39;;;;;;;27.53;16.10;;;6.40;99.90;;;;;;4424502;28;655888;-66
2023/10/09 15:11:28;;;;;;;26.87;15.33;;;6.50;99.90;;;;;;4449302;28;656540;-66
2023/10/09 15:14:18;;;;;;;32.63;19.17;;;6.50;99.90;;;;;;4419666;28;656376;-66
2023/10/09 15:17:06;;;;;;;29.30;17.60;;;6.40;99.90;;;;;;4420232;28;656218;-66
2023/10/09 15:19:56;;;;;;;28.93;15.87;;;6.40;99.90;;;;;;4419607;28;655512;-66
2023/10/09 15:22:44;;;;;;;23.27;12.43;;;6.40;99.90;;;;;;4426300;28;656309;-66
2023/10/09 15:25:31;;;;;;;20.03;10.97;;;6.40;99.90;;;;;;4436874;28;656118;-66
2023/10/09 15:28:19;;;;;;;18.20;10.30;;;6.30;99.90;;;;;;4421795;28;656074;-66
2023/10/09 15:31:10;;;;;;;19.70;10.80;;;6.40;99.90;;;;;;4442537;28;655843;-66
2023/10/09 15:33:58;;;;;;;22.57;11.73;;;6.50;99.90;;;;;;4405101;28;655501;-66
2023/10/09 15:36:46;;;;;;;22.03;12.57;;;6.50;99.90;;;;;;4440586;28;656909;-66
2023/10/09 15:39:35;;;;;;;37.40;17.87;;;6.40;99.90;;;;;;4424697;28;655735;-66